Terminal Aerodrome Forecast
Issued by NWS Charleston, WV

Current Version | Previous Version | Graphics & Text | Print | Product List | Glossary On
Versions: 1 2 3 4 5 6 7 8 9 10 11 12 13 14 15 16 17 18 19 20 21 22
000
FTUS41 KRLX 242200 AAA
TAFPKB
TAF AMD
KPKB 242259Z 2423/2518 17012KT P6SM BKN040
     FM242330 26021G45KT 6SM SHRA OVC035
     FM250000 26014G28KT P6SM BKN035
     FM250200 24013G27KT P6SM OVC025
     FM250400 23009G18KT P6SM OVC015
     FM251400 27012G18KT P6SM OVC025
     FM251600 27012G18KT P6SM BKN035=

USA.gov is the U.S. government's official web portal to all federal, state and local government web resources and services.